createdAt,value
2017-08-24T00:01:41.156Z,21.70
2017-08-24T00:04:10.221Z,21.70
2017-08-24T00:06:39.890Z,21.70
2017-08-24T00:09:09.406Z,21.70
2017-08-24T00:11:41.976Z,21.70
2017-08-24T00:14:20.217Z,21.60
2017-08-24T00:16:49.676Z,21.60
2017-08-24T00:19:18.969Z,21.60
2017-08-24T00:21:48.146Z,21.70
2017-08-24T00:24:18.322Z,21.70
2017-08-24T00:26:47.433Z,21.70
2017-08-24T00:29:16.759Z,21.80
2017-08-24T00:31:45.981Z,21.70
2017-08-24T00:34:15.175Z,21.70
2017-08-24T00:36:45.247Z,21.70
2017-08-24T00:39:14.227Z,21.60
2017-08-24T00:41:43.379Z,21.60
2017-08-24T00:44:12.538Z,21.60
2017-08-24T00:47:12.346Z,21.50
2017-08-24T00:49:41.625Z,21.50
2017-08-24T00:52:10.801Z,21.50
2017-08-24T00:54:40.280Z,21.50
2017-08-24T00:57:09.464Z,21.50
2017-08-24T00:59:39.378Z,21.50
2017-08-24T01:03:11.479Z,21.40
2017-08-24T01:05:41.300Z,21.50
2017-08-24T01:08:10.482Z,21.50
2017-08-24T01:10:39.436Z,21.50
2017-08-24T01:13:09.032Z,21.40
2017-08-24T01:15:38.232Z,21.30
2017-08-24T01:18:07.378Z,21.20
2017-08-24T01:20:36.908Z,21.20
2017-08-24T01:23:06.283Z,21.20
2017-08-24T01:25:35.572Z,21.10
2017-08-24T01:28:05.924Z,20.80
2017-08-24T01:30:35.021Z,20.80
2017-08-24T01:33:04.424Z,20.80
2017-08-24T01:35:33.480Z,20.70
2017-08-24T01:38:02.546Z,20.70
2017-08-24T01:40:31.787Z,20.60
2017-08-24T01:43:01.689Z,20.50
2017-08-24T01:45:30.977Z,20.50
2017-08-24T01:48:00.121Z,20.60
2017-08-24T01:50:30.785Z,20.50
2017-08-24T01:53:02.149Z,20.50
2017-08-24T01:55:31.399Z,20.40
2017-08-24T01:58:00.751Z,20.40
2017-08-24T02:00:29.917Z,20.40
2017-08-24T02:02:59.074Z,20.30
2017-08-24T02:05:29.282Z,20.30
2017-08-24T02:07:59.449Z,20.30
2017-08-24T02:10:28.829Z,20.20
2017-08-24T02:12:59.672Z,20.20
2017-08-24T02:15:28.893Z,20.10
2017-08-24T02:17:58.050Z,20.00
2017-08-24T02:20:27.768Z,20.00
2017-08-24T02:22:58.233Z,19.90
2017-08-24T02:25:27.406Z,19.90
2017-08-24T02:27:56.460Z,19.80
2017-08-24T02:30:25.669Z,19.80
2017-08-24T02:32:54.799Z,19.70
2017-08-24T02:35:24.323Z,19.70
2017-08-24T02:37:53.544Z,19.60
2017-08-24T02:40:23.277Z,19.50
2017-08-24T02:42:53.280Z,19.40
2017-08-24T02:45:22.473Z,19.30
2017-08-24T02:47:51.509Z,19.20
2017-08-24T02:50:20.619Z,19.10
2017-08-24T02:52:49.845Z,19.10
2017-08-24T02:55:19.072Z,19.00
2017-08-24T02:57:48.205Z,18.90
2017-08-24T03:00:17.377Z,18.80
2017-08-24T03:02:47.309Z,18.80
2017-08-24T03:05:17.667Z,18.80
2017-08-24T03:07:46.889Z,18.80
2017-08-24T03:10:15.893Z,18.80
2017-08-24T03:12:44.894Z,18.70
2017-08-24T03:15:13.921Z,18.70
2017-08-24T03:17:43.424Z,18.50
2017-08-24T03:20:12.565Z,18.50
2017-08-24T03:22:41.833Z,18.50
2017-08-24T03:25:11.443Z,18.40
2017-08-24T03:27:40.584Z,18.40
2017-08-24T03:30:09.733Z,18.40
2017-08-24T03:32:39.690Z,18.30
2017-08-24T03:35:08.695Z,18.20
2017-08-24T03:37:38.065Z,18.30
2017-08-24T03:40:07.280Z,18.20
2017-08-24T03:42:36.342Z,18.10
2017-08-24T03:45:05.405Z,18.10
2017-08-24T03:47:35.293Z,18.10
2017-08-24T03:50:04.329Z,18.10
2017-08-24T03:52:33.337Z,18.10
2017-08-24T03:55:02.385Z,18.10
2017-08-24T03:57:31.401Z,18.10
2017-08-24T04:00:00.458Z,18.10
2017-08-24T04:02:29.483Z,18.00
2017-08-24T04:04:59.827Z,17.90
2017-08-24T04:07:29.351Z,17.90
2017-08-24T04:09:58.533Z,17.80
2017-08-24T04:12:27.721Z,17.80
2017-08-24T04:14:58.052Z,17.70
2017-08-24T04:17:27.107Z,17.70
2017-08-24T04:19:56.661Z,17.70
2017-08-24T04:22:25.798Z,17.70
2017-08-24T04:24:55.142Z,17.80
2017-08-24T04:27:24.768Z,17.70
2017-08-24T04:29:53.916Z,17.60
2017-08-24T04:32:23.197Z,17.70
2017-08-24T04:34:52.282Z,17.80
2017-08-24T04:37:21.418Z,17.80
2017-08-24T04:39:50.877Z,17.70
2017-08-24T04:42:19.881Z,17.60
2017-08-24T04:44:49.153Z,17.50
2017-08-24T04:47:18.949Z,17.50
2017-08-24T04:49:48.868Z,17.50
2017-08-24T04:52:18.413Z,17.50
2017-08-24T04:54:47.626Z,17.50
2017-08-24T04:57:17.038Z,17.50
2017-08-24T04:59:46.926Z,17.50
2017-08-24T05:02:16.101Z,17.50
2017-08-24T05:04:45.137Z,17.50
2017-08-24T05:07:14.153Z,17.60
2017-08-24T05:09:44.267Z,17.50
2017-08-24T05:12:13.660Z,17.50
2017-08-24T05:14:43.416Z,17.60
2017-08-24T05:17:12.526Z,17.50
2017-08-24T05:19:41.664Z,17.60
2017-08-24T05:22:10.772Z,17.60
2017-08-24T05:24:40.580Z,17.70
2017-08-24T05:27:09.568Z,17.70
2017-08-24T05:29:39.096Z,17.80
2017-08-24T05:32:08.312Z,17.70
2017-08-24T05:34:37.413Z,17.80
2017-08-24T05:37:06.573Z,17.80
2017-08-24T05:39:35.707Z,17.80
2017-08-24T05:42:05.119Z,17.80
2017-08-24T05:44:34.240Z,17.70
2017-08-24T05:47:03.471Z,17.80
2017-08-24T05:49:33.521Z,17.80
2017-08-24T05:52:02.717Z,17.80
2017-08-24T05:54:32.534Z,17.80
2017-08-24T05:57:01.683Z,17.90
2017-08-24T05:59:30.717Z,17.90
2017-08-24T06:01:59.749Z,17.90
2017-08-24T06:04:29.041Z,18.00
2017-08-24T06:06:58.367Z,18.00
2017-08-24T06:09:27.792Z,17.90
2017-08-24T06:12:00.678Z,18.00
2017-08-24T06:14:30.088Z,18.00
2017-08-24T06:16:59.388Z,18.00
2017-08-24T06:19:29.475Z,18.00
2017-08-24T06:21:59.337Z,18.00
2017-08-24T06:24:30.152Z,18.00
2017-08-24T06:27:00.169Z,18.00
2017-08-24T06:29:29.624Z,18.00
2017-08-24T06:31:59.107Z,18.10
2017-08-24T06:34:28.482Z,18.10
2017-08-24T06:36:57.722Z,18.20
2017-08-24T06:39:27.076Z,18.40
2017-08-24T06:41:57.090Z,19.00
2017-08-24T06:44:26.414Z,18.90
2017-08-24T06:46:55.918Z,19.10
2017-08-24T06:49:25.112Z,19.60
2017-08-24T06:51:55.575Z,20.00
2017-08-24T06:54:25.125Z,20.00
2017-08-24T06:56:54.361Z,19.90
2017-08-24T06:59:23.810Z,19.70
2017-08-24T07:01:52.969Z,19.60
2017-08-24T07:04:22.872Z,19.40
2017-08-24T07:06:53.483Z,19.20
2017-08-24T07:09:22.842Z,19.10
2017-08-24T07:11:52.023Z,19.20
2017-08-24T07:14:21.680Z,19.30
2017-08-24T07:16:51.664Z,19.40
2017-08-24T07:19:20.771Z,19.40
2017-08-24T07:21:50.287Z,19.60
2017-08-24T07:24:19.287Z,19.80
2017-08-24T07:26:49.819Z,19.90
2017-08-24T07:29:19.925Z,19.80
2017-08-24T07:31:49.298Z,19.80
2017-08-24T07:34:18.900Z,19.70
2017-08-24T07:36:48.069Z,19.80
2017-08-24T07:39:17.115Z,19.80
2017-08-24T07:41:47.135Z,20.00
2017-08-24T07:44:16.743Z,20.00
2017-08-24T07:46:46.004Z,20.00
2017-08-24T07:49:15.205Z,20.10
2017-08-24T07:51:44.253Z,20.10
2017-08-24T07:54:13.494Z,20.00
2017-08-24T07:56:44.062Z,20.10
2017-08-24T07:59:13.747Z,20.30
2017-08-24T08:08:26.663Z,20.50
2017-08-24T08:10:57.189Z,20.70
2017-08-24T08:13:32.124Z,21.30
2017-08-24T08:16:02.210Z,21.50
2017-08-24T08:18:31.541Z,21.50
2017-08-24T08:21:03.044Z,21.60
2017-08-24T08:23:33.161Z,22.40
2017-08-24T08:26:03.887Z,22.30
2017-08-24T08:28:36.094Z,22.20
2017-08-24T08:31:05.964Z,22.60
2017-08-24T08:33:35.373Z,22.60
2017-08-24T08:36:04.574Z,22.10
2017-08-24T08:38:33.989Z,22.20
2017-08-24T08:41:04.209Z,22.70
2017-08-24T08:43:33.307Z,22.90
2017-08-24T08:46:03.288Z,23.30
2017-08-24T08:48:37.779Z,23.20
2017-08-24T08:51:09.832Z,22.80
2017-08-24T08:53:41.342Z,22.90
2017-08-24T08:56:10.831Z,22.90
2017-08-24T08:58:41.149Z,23.10
2017-08-24T09:01:10.430Z,23.00
2017-08-24T09:03:40.391Z,22.50
2017-08-24T09:06:09.952Z,22.40
2017-08-24T09:08:39.813Z,23.00
2017-08-24T09:11:34.706Z,23.00
2017-08-24T09:14:03.880Z,23.10
2017-08-24T09:16:36.031Z,23.20
2017-08-24T09:19:05.064Z,23.40
2017-08-24T09:21:34.142Z,23.70
2017-08-24T09:24:04.430Z,24.30
2017-08-24T09:26:33.694Z,24.20
2017-08-24T09:29:04.501Z,23.80
2017-08-24T09:31:34.800Z,23.60
2017-08-24T09:34:04.033Z,23.50
2017-08-24T09:36:33.495Z,23.40
2017-08-24T09:39:02.583Z,23.00
2017-08-24T09:41:31.972Z,22.40
2017-08-24T09:44:01.112Z,22.10
2017-08-24T09:46:31.072Z,22.40
2017-08-24T09:49:02.743Z,22.40
2017-08-24T09:51:32.778Z,22.50
2017-08-24T09:54:02.438Z,22.80
2017-08-24T09:56:43.109Z,22.70
2017-08-24T09:59:13.798Z,22.70
2017-08-24T10:01:52.132Z,22.80
2017-08-24T10:04:23.148Z,22.90
2017-08-24T10:06:54.791Z,23.00
2017-08-24T10:09:24.173Z,23.20
2017-08-24T10:11:53.561Z,23.30
2017-08-24T10:14:23.045Z,23.10
2017-08-24T10:16:52.372Z,23.30
2017-08-24T10:19:22.306Z,23.10
2017-08-24T10:21:51.618Z,23.20
2017-08-24T10:24:21.363Z,23.10
2017-08-24T10:26:50.862Z,23.80
2017-08-24T10:29:25.559Z,24.20
2017-08-24T10:31:55.716Z,23.40
2017-08-24T10:34:26.137Z,23.10
2017-08-24T10:36:58.036Z,23.00
2017-08-24T10:39:27.705Z,23.00
2017-08-24T10:41:58.433Z,22.80
2017-08-24T10:44:28.858Z,23.10
2017-08-24T10:46:58.402Z,24.30
2017-08-24T10:49:29.542Z,24.80
2017-08-24T10:51:59.880Z,25.60
2017-08-24T10:54:30.496Z,26.00
2017-08-24T10:57:00.006Z,26.10
2017-08-24T10:59:42.476Z,25.50
2017-08-24T11:02:18.615Z,25.50
2017-08-24T11:04:48.203Z,25.20
2017-08-24T11:07:17.600Z,25.20
2017-08-24T11:09:47.369Z,25.90
2017-08-24T11:12:16.511Z,25.60
2017-08-24T11:14:45.901Z,26.10
2017-08-24T11:17:14.942Z,27.80
2017-08-24T11:19:44.168Z,29.50
2017-08-24T11:22:14.843Z,30.20
2017-08-24T11:24:47.405Z,30.10
2017-08-24T11:27:17.507Z,30.60
2017-08-24T11:29:47.838Z,28.90
2017-08-24T11:32:17.148Z,29.10
2017-08-24T11:34:47.173Z,28.90
2017-08-24T11:37:16.169Z,29.60
2017-08-24T11:39:45.616Z,29.80
2017-08-24T11:42:14.914Z,29.50
2017-08-24T11:44:44.273Z,29.80
2017-08-24T11:47:14.091Z,29.20
2017-08-24T11:49:43.220Z,29.50
2017-08-24T11:52:12.374Z,29.60
2017-08-24T11:54:41.567Z,29.60
2017-08-24T11:57:10.708Z,31.20
2017-08-24T11:59:39.938Z,32.80
2017-08-24T12:02:09.659Z,33.10
2017-08-24T12:04:40.014Z,31.50
2017-08-24T12:07:09.357Z,31.40
2017-08-24T12:09:38.696Z,31.70
2017-08-24T12:12:08.158Z,32.60
2017-08-24T12:14:37.410Z,30.50
2017-08-24T12:17:07.145Z,30.40
2017-08-24T12:19:36.503Z,30.70
2017-08-24T12:22:05.822Z,30.90
2017-08-24T12:24:36.478Z,30.40
2017-08-24T12:27:05.877Z,27.90
2017-08-24T12:29:35.496Z,27.60
2017-08-24T12:32:05.042Z,27.60
2017-08-24T12:34:34.338Z,28.00
2017-08-24T12:37:04.628Z,32.00
2017-08-24T12:39:33.969Z,31.90
2017-08-24T12:42:03.997Z,29.90
2017-08-24T12:44:33.595Z,29.90
2017-08-24T12:47:05.025Z,30.50
2017-08-24T12:49:34.284Z,28.70
2017-08-24T12:52:03.749Z,28.10
2017-08-24T12:54:33.874Z,30.60
2017-08-24T12:57:04.887Z,30.50
2017-08-24T12:59:34.378Z,30.80
2017-08-24T13:02:03.754Z,32.60
2017-08-24T13:04:32.851Z,32.60
2017-08-24T13:07:01.893Z,30.70
2017-08-24T13:09:31.764Z,29.60
2017-08-24T13:12:00.901Z,29.60
2017-08-24T13:14:30.098Z,29.80
2017-08-24T13:16:59.234Z,29.90
2017-08-24T13:19:28.318Z,30.20
2017-08-24T13:21:57.452Z,30.80
2017-08-24T13:24:27.063Z,30.20
2017-08-24T13:26:56.935Z,30.80
2017-08-24T13:29:27.177Z,30.90
2017-08-24T13:31:56.488Z,32.50
2017-08-24T13:34:25.879Z,33.10
2017-08-24T13:36:55.121Z,33.60
2017-08-24T13:39:24.437Z,32.00
2017-08-24T13:41:54.137Z,30.90
2017-08-24T13:44:23.272Z,30.70
2017-08-24T13:46:52.649Z,30.80
2017-08-24T13:49:22.713Z,30.60
2017-08-24T13:51:51.949Z,30.60
2017-08-24T13:55:25.171Z,31.40
2017-08-24T13:57:54.774Z,31.30
2017-08-24T14:00:24.761Z,27.50
2017-08-24T14:02:53.769Z,27.40
2017-08-24T14:05:23.408Z,27.10
2017-08-24T14:07:53.404Z,27.00
2017-08-24T14:10:23.197Z,27.00
2017-08-24T14:12:52.419Z,26.90
2017-08-24T14:15:22.317Z,26.00
2017-08-24T14:17:52.133Z,25.90
2017-08-24T14:20:22.398Z,26.10
2017-08-24T14:22:51.994Z,26.10
2017-08-24T14:25:21.976Z,25.80
2017-08-24T14:27:51.533Z,25.80
2017-08-24T14:30:20.993Z,25.70
2017-08-24T14:32:50.204Z,25.60
2017-08-24T14:35:19.231Z,25.70
2017-08-24T14:37:48.645Z,25.90
2017-08-24T14:40:17.801Z,25.80
2017-08-24T14:42:47.928Z,25.80
2017-08-24T14:45:17.025Z,25.70
2017-08-24T14:47:47.243Z,25.80
2017-08-24T14:50:17.076Z,25.70
2017-08-24T14:52:46.422Z,25.80
2017-08-24T14:55:15.764Z,25.70
2017-08-24T14:57:45.105Z,25.30
2017-08-24T15:00:14.498Z,25.30
2017-08-24T15:02:44.384Z,25.40
2017-08-24T15:05:13.577Z,25.60
2017-08-24T15:07:42.776Z,25.90
2017-08-24T15:10:12.708Z,25.40
2017-08-24T15:12:42.073Z,25.40
2017-08-24T15:15:12.500Z,25.50
2017-08-24T15:17:41.744Z,25.50
2017-08-24T15:20:11.101Z,25.50
2017-08-24T15:22:40.322Z,24.90
2017-08-24T15:25:12.332Z,24.80
2017-08-24T15:27:41.978Z,24.90
2017-08-24T15:30:12.086Z,25.20
2017-08-24T15:32:41.755Z,25.20
2017-08-24T15:35:16.199Z,25.30
2017-08-24T15:37:46.146Z,25.40
2017-08-24T15:40:17.021Z,25.30
2017-08-24T15:42:47.097Z,25.10
2017-08-24T15:45:17.681Z,24.80
2017-08-24T15:47:46.745Z,24.80
2017-08-24T15:50:19.111Z,25.00
2017-08-24T15:52:51.993Z,25.00
2017-08-24T15:55:23.110Z,25.00
2017-08-24T15:57:55.121Z,24.70
2017-08-24T16:00:26.129Z,24.60
2017-08-24T16:02:57.483Z,24.60
2017-08-24T16:05:28.820Z,24.50
2017-08-24T16:08:00.237Z,24.50
2017-08-24T16:10:29.911Z,24.30
2017-08-24T16:12:59.821Z,24.30
2017-08-24T16:15:29.631Z,24.40
2017-08-24T16:18:10.173Z,24.30
2017-08-24T16:20:39.730Z,24.30
2017-08-24T16:23:08.901Z,24.40
2017-08-24T16:25:38.347Z,24.40
2017-08-24T16:28:08.530Z,24.50
2017-08-24T16:30:38.490Z,24.50
2017-08-24T16:33:08.852Z,24.60
2017-08-24T16:35:39.282Z,24.60
2017-08-24T16:38:15.649Z,24.10
2017-08-24T16:40:58.964Z,24.00
2017-08-24T16:43:28.823Z,23.90
2017-08-24T16:45:59.197Z,23.80
2017-08-24T16:48:28.970Z,23.80
2017-08-24T16:51:09.072Z,23.80
2017-08-24T16:53:39.385Z,23.80
2017-08-24T16:56:08.990Z,23.80
2017-08-24T16:58:39.591Z,23.80
2017-08-24T17:01:16.155Z,23.80
2017-08-24T17:03:46.246Z,23.80
2017-08-24T17:06:15.651Z,23.80
2017-08-24T17:08:45.126Z,23.80
2017-08-24T17:11:15.979Z,23.70
2017-08-24T17:13:48.496Z,23.60
2017-08-24T17:16:24.319Z,23.60
2017-08-24T17:18:54.239Z,23.60
2017-08-24T17:21:24.362Z,23.60
2017-08-24T17:23:55.236Z,23.60
2017-08-24T17:26:25.579Z,23.40
2017-08-24T17:28:55.326Z,23.40
2017-08-24T17:31:25.205Z,23.20
2017-08-24T17:33:55.129Z,23.30
2017-08-24T17:36:30.374Z,23.30
2017-08-24T17:39:00.395Z,23.30
2017-08-24T17:41:31.887Z,23.30
2017-08-24T17:44:01.677Z,23.20
2017-08-24T17:46:37.462Z,23.00
2017-08-24T17:49:07.462Z,23.00
2017-08-24T17:51:39.296Z,23.00
2017-08-24T17:54:08.809Z,23.10
2017-08-24T17:56:38.256Z,23.10
2017-08-24T17:59:08.981Z,23.00
2017-08-24T18:01:38.149Z,23.00
2017-08-24T18:04:07.861Z,22.90
2017-08-24T18:06:37.896Z,22.90
2017-08-24T18:09:09.407Z,22.90
2017-08-24T18:11:39.694Z,22.90
2017-08-24T18:14:10.191Z,22.80
2017-08-24T18:16:39.992Z,22.80
2017-08-24T18:19:19.790Z,22.60
2017-08-24T18:21:49.970Z,22.60
2017-08-24T18:24:30.573Z,22.50
2017-08-24T18:27:14.324Z,22.50
2017-08-24T18:29:44.945Z,22.40
2017-08-24T18:32:14.561Z,22.30
2017-08-24T18:34:46.887Z,22.30
2017-08-24T18:37:16.719Z,22.20
2017-08-24T18:39:46.303Z,22.10
2017-08-24T18:42:16.611Z,22.00
2017-08-24T18:44:47.845Z,21.90
2017-08-24T18:47:17.224Z,21.90
2017-08-24T18:49:48.410Z,21.90
2017-08-24T18:52:19.543Z,21.80
2017-08-24T18:54:50.230Z,21.80
2017-08-24T18:57:20.101Z,21.70
2017-08-24T18:59:50.100Z,21.70
2017-08-24T19:04:57.277Z,21.70
2017-08-24T19:07:31.867Z,21.60
2017-08-24T19:10:29.907Z,21.70
2017-08-24T19:12:59.750Z,21.60
2017-08-24T19:15:29.454Z,21.60
2017-08-24T19:17:59.355Z,21.50
2017-08-24T19:20:29.625Z,21.40
2017-08-24T19:23:03.527Z,21.40
2017-08-24T19:25:43.686Z,21.40
2017-08-24T19:28:45.251Z,21.30
2017-08-24T19:31:15.369Z,21.30
2017-08-24T19:33:44.798Z,21.30
2017-08-24T19:36:14.465Z,21.30
2017-08-24T19:38:44.172Z,21.30
2017-08-24T19:41:13.649Z,21.20
2017-08-24T19:43:43.398Z,21.10
2017-08-24T19:46:12.694Z,21.00
2017-08-24T19:48:41.864Z,21.00
2017-08-24T19:51:11.062Z,21.00
2017-08-24T19:53:41.330Z,20.90
2017-08-24T19:56:10.640Z,20.90
2017-08-24T19:58:39.830Z,21.00
2017-08-24T20:01:09.112Z,20.90
2017-08-24T20:03:38.522Z,20.90
2017-08-24T20:06:08.544Z,20.80
2017-08-24T20:08:39.345Z,20.80
2017-08-24T20:11:10.322Z,20.80
2017-08-24T20:13:39.901Z,20.70
2017-08-24T20:16:09.268Z,20.70
2017-08-24T20:18:38.759Z,20.70
2017-08-24T20:21:18.345Z,20.70
2017-08-24T20:23:48.557Z,20.60
2017-08-24T20:26:18.860Z,20.60
2017-08-24T20:28:48.282Z,20.60
2017-08-24T20:31:18.822Z,20.60
2017-08-24T20:33:49.820Z,20.50
2017-08-24T20:36:20.011Z,20.50
2017-08-24T20:38:49.664Z,20.50
2017-08-24T20:41:19.316Z,20.50
2017-08-24T20:43:49.281Z,20.40
2017-08-24T20:46:19.005Z,20.40
2017-08-24T20:48:49.322Z,20.30
2017-08-24T20:51:18.929Z,20.30
2017-08-24T20:53:49.399Z,20.20
2017-08-24T20:56:22.111Z,20.20
2017-08-24T20:58:51.687Z,20.20
2017-08-24T21:01:21.329Z,20.10
2017-08-24T21:03:50.916Z,20.00
2017-08-24T21:06:20.484Z,20.00
2017-08-24T21:08:50.388Z,20.00
2017-08-24T21:11:20.464Z,20.00
2017-08-24T21:13:51.790Z,20.00
2017-08-24T21:16:21.029Z,20.10
2017-08-24T21:18:50.771Z,20.00
2017-08-24T21:21:22.166Z,19.90
2017-08-24T21:23:51.901Z,19.90
2017-08-24T21:26:22.474Z,19.90
2017-08-24T21:28:52.994Z,19.80
2017-08-24T21:31:22.579Z,19.80
2017-08-24T21:33:51.891Z,19.60
2017-08-24T21:36:21.843Z,19.50
2017-08-24T21:38:51.284Z,19.40
2017-08-24T21:41:51.755Z,19.40
2017-08-24T21:44:21.576Z,19.30
2017-08-24T21:46:53.581Z,19.40
2017-08-24T21:49:23.470Z,19.30
2017-08-24T21:51:53.262Z,19.40
2017-08-24T21:54:23.629Z,19.30
2017-08-24T21:56:53.276Z,19.30
2017-08-24T21:59:22.753Z,19.30
2017-08-24T22:01:52.555Z,19.30
2017-08-24T22:04:22.470Z,19.30
2017-08-24T22:06:52.314Z,19.30
2017-08-24T22:09:21.858Z,19.30
2017-08-24T22:11:51.944Z,19.20
2017-08-24T22:14:22.320Z,19.30
2017-08-24T22:16:51.975Z,19.30
2017-08-24T22:19:22.767Z,19.30
2017-08-24T22:21:52.207Z,19.20
2017-08-24T22:24:24.685Z,19.20
2017-08-24T22:26:54.290Z,19.20
2017-08-24T22:29:25.061Z,19.20
2017-08-24T22:31:54.539Z,19.00
2017-08-24T22:34:24.159Z,19.00
2017-08-24T22:36:53.654Z,19.00
2017-08-24T22:39:27.009Z,19.00
2017-08-24T22:41:58.815Z,19.00
2017-08-24T22:44:37.535Z,19.00
2017-08-24T22:47:16.199Z,18.90
2017-08-24T22:49:46.848Z,18.90
2017-08-24T22:52:18.232Z,18.90
2017-08-24T22:56:56.298Z,18.90
2017-08-24T23:01:32.057Z,18.90
2017-08-24T23:04:01.340Z,18.90
2017-08-24T23:06:31.485Z,18.90
2017-08-24T23:09:05.239Z,18.80
2017-08-24T23:11:35.171Z,18.80
2017-08-24T23:14:04.605Z,18.80
2017-08-24T23:16:34.309Z,18.70
2017-08-24T23:19:03.761Z,18.70
2017-08-24T23:21:33.389Z,18.60
2017-08-24T23:24:02.980Z,18.60
2017-08-24T23:26:42.721Z,18.60
2017-08-24T23:29:13.977Z,18.60
2017-08-24T23:31:43.866Z,18.60
2017-08-24T23:34:18.746Z,18.60
2017-08-24T23:36:55.422Z,18.60
2017-08-24T23:39:33.601Z,18.60
2017-08-24T23:42:05.233Z,18.60
2017-08-24T23:44:55.895Z,18.50
2017-08-24T23:47:25.564Z,18.50
2017-08-24T23:49:55.053Z,18.40
2017-08-24T23:52:32.869Z,18.40
2017-08-24T23:55:21.185Z,18.40
2017-08-24T23:58:02.411Z,18.40
